Forside
METAR-TAF:

METAR-TAF

Lufthavne :

Mora Municipal Airport

Mora, Minnesota, USA

Breddekreds: 45-53-10N, længdekreds: 093-16-18W, højde: 309 m

Aktuelle vejr

Denne rapport blev lavet for 27 minutter siden, kl. 11:35 UTC
Vind 6 kt fra østsydøst
Temperatur 0°C
Fugtighed 86%
Tryk 1017 hPa
Sigt: 4.8 km
Brudte skyer i en højde af 800 ft
Overskyet i en højde af 1900 ft
let sne

METAR: KJMR 241135Z AUTO 12006KT 3SM -SN BKN008 OVC019 00/M02 A3003 RMK AO2

Tid: 06:02 (12:02 UTC)


TAF: fraværende

Vejrobservationer og prognoser fra mere end 4000 lufthavne (METAR og TAF).

De gule og røde prikker repræsenterer de meteorologiske stationer.

Flyt musen over at se navnet på stationen.

Så klik over at se vejr observationer og prognoser.

At skifte det kort: Klik på de grønne knapper med et sort kors for at zoome ind; på den grønne knap med en bindestreg for at zoome ud; eller på de grønne pile for tilstødende kort.


METAR-TAF: